sensor_id;sensor_type;location;lat;lon;timestamp;temperature;humidity
19050;DHT22;9657;45.940;12.840;2022-07-21T00:00:24;33.10;39.20
19050;DHT22;9657;45.940;12.840;2022-07-21T00:02:53;33.10;39.20
19050;DHT22;9657;45.940;12.840;2022-07-21T00:05:20;33.00;39.10
19050;DHT22;9657;45.940;12.840;2022-07-21T00:07:48;33.00;39.10
19050;DHT22;9657;45.940;12.840;2022-07-21T00:10:15;33.00;39.20
19050;DHT22;9657;45.940;12.840;2022-07-21T00:12:42;33.00;39.20
19050;DHT22;9657;45.940;12.840;2022-07-21T00:15:12;33.00;39.20
19050;DHT22;9657;45.940;12.840;2022-07-21T00:17:39;33.00;39.40
19050;DHT22;9657;45.940;12.840;2022-07-21T00:20:09;33.00;39.20
19050;DHT22;9657;45.940;12.840;2022-07-21T00:22:37;33.00;39.20
19050;DHT22;9657;45.940;12.840;2022-07-21T00:25:05;33.00;39.20
19050;DHT22;9657;45.940;12.840;2022-07-21T00:27:33;33.00;39.30
19050;DHT22;9657;45.940;12.840;2022-07-21T00:30:00;33.00;39.30
19050;DHT22;9657;45.940;12.840;2022-07-21T00:32:29;33.00;39.30
19050;DHT22;9657;45.940;12.840;2022-07-21T00:34:56;33.00;39.30
19050;DHT22;9657;45.940;12.840;2022-07-21T00:37:23;33.00;39.30
19050;DHT22;9657;45.940;12.840;2022-07-21T00:39:50;33.00;39.30
19050;DHT22;9657;45.940;12.840;2022-07-21T00:42:21;33.00;39.30
19050;DHT22;9657;45.940;12.840;2022-07-21T00:44:48;33.00;39.30
19050;DHT22;9657;45.940;12.840;2022-07-21T00:47:19;33.00;39.30
19050;DHT22;9657;45.940;12.840;2022-07-21T00:49:47;33.00;39.30
19050;DHT22;9657;45.940;12.840;2022-07-21T00:52:15;33.00;39.30
19050;DHT22;9657;45.940;12.840;2022-07-21T00:54:42;33.00;39.30
19050;DHT22;9657;45.940;12.840;2022-07-21T00:57:10;33.00;39.40
19050;DHT22;9657;45.940;12.840;2022-07-21T00:59:38;32.90;39.30
19050;DHT22;9657;45.940;12.840;2022-07-21T01:04:40;33.00;39.40
19050;DHT22;9657;45.940;12.840;2022-07-21T01:07:09;32.90;39.30
19050;DHT22;9657;45.940;12.840;2022-07-21T01:09:36;32.90;39.30
19050;DHT22;9657;45.940;12.840;2022-07-21T01:12:04;32.90;39.40
19050;DHT22;9657;45.940;12.840;2022-07-21T01:14:31;32.90;39.40
19050;DHT22;9657;45.940;12.840;2022-07-21T01:17:00;32.90;39.40
19050;DHT22;9657;45.940;12.840;2022-07-21T01:19:28;32.90;39.40
19050;DHT22;9657;45.940;12.840;2022-07-21T01:21:57;32.90;39.40
19050;DHT22;9657;45.940;12.840;2022-07-21T01:24:24;32.90;39.40
19050;DHT22;9657;45.940;12.840;2022-07-21T01:26:52;32.90;39.40
19050;DHT22;9657;45.940;12.840;2022-07-21T01:29:20;32.90;39.40
19050;DHT22;9657;45.940;12.840;2022-07-21T01:31:48;32.90;39.40
19050;DHT22;9657;45.940;12.840;2022-07-21T01:34:15;32.90;39.40
19050;DHT22;9657;45.940;12.840;2022-07-21T01:36:43;32.90;39.40
19050;DHT22;9657;45.940;12.840;2022-07-21T01:39:13;32.90;39.40
19050;DHT22;9657;45.940;12.840;2022-07-21T01:41:58;32.90;39.40
19050;DHT22;9657;45.940;12.840;2022-07-21T01:44:25;32.90;39.40
19050;DHT22;9657;45.940;12.840;2022-07-21T01:46:53;32.90;39.40
19050;DHT22;9657;45.940;12.840;2022-07-21T01:49:21;32.90;39.40
19050;DHT22;9657;45.940;12.840;2022-07-21T01:51:49;32.90;39.40
19050;DHT22;9657;45.940;12.840;2022-07-21T01:54:18;32.90;39.40
19050;DHT22;9657;45.940;12.840;2022-07-21T01:56:45;32.90;39.40
19050;DHT22;9657;45.940;12.840;2022-07-21T01:59:12;32.90;39.40
19050;DHT22;9657;45.940;12.840;2022-07-21T02:01:39;32.90;39.50
19050;DHT22;9657;45.940;12.840;2022-07-21T02:04:06;32.80;39.40
19050;DHT22;9657;45.940;12.840;2022-07-21T02:06:33;32.80;39.40
19050;DHT22;9657;45.940;12.840;2022-07-21T02:09:01;32.90;39.50
19050;DHT22;9657;45.940;12.840;2022-07-21T02:11:29;32.80;39.50
19050;DHT22;9657;45.940;12.840;2022-07-21T02:13:56;32.80;39.50
19050;DHT22;9657;45.940;12.840;2022-07-21T02:16:23;32.90;39.60
19050;DHT22;9657;45.940;12.840;2022-07-21T02:18:50;32.80;39.50
19050;DHT22;9657;45.940;12.840;2022-07-21T02:21:18;32.80;39.50
19050;DHT22;9657;45.940;12.840;2022-07-21T02:23:45;32.80;39.60
19050;DHT22;9657;45.940;12.840;2022-07-21T02:26:12;32.90;39.60
19050;DHT22;9657;45.940;12.840;2022-07-21T02:28:40;32.80;39.60
19050;DHT22;9657;45.940;12.840;2022-07-21T02:31:07;32.80;39.60
19050;DHT22;9657;45.940;12.840;2022-07-21T02:33:35;32.80;39.60
19050;DHT22;9657;45.940;12.840;2022-07-21T02:36:03;32.80;39.60
19050;DHT22;9657;45.940;12.840;2022-07-21T02:38:30;32.80;39.60
19050;DHT22;9657;45.940;12.840;2022-07-21T02:40:57;32.80;39.60
19050;DHT22;9657;45.940;12.840;2022-07-21T02:43:24;32.80;39.60
19050;DHT22;9657;45.940;12.840;2022-07-21T02:45:52;32.80;39.70
19050;DHT22;9657;45.940;12.840;2022-07-21T02:48:19;32.80;39.60
19050;DHT22;9657;45.940;12.840;2022-07-21T02:50:47;32.80;39.70
19050;DHT22;9657;45.940;12.840;2022-07-21T02:53:15;32.80;39.70
19050;DHT22;9657;45.940;12.840;2022-07-21T02:55:43;32.70;39.60
19050;DHT22;9657;45.940;12.840;2022-07-21T02:58:12;32.70;39.70
19050;DHT22;9657;45.940;12.840;2022-07-21T03:00:43;32.80;39.70
19050;DHT22;9657;45.940;12.840;2022-07-21T03:03:11;32.70;39.70
19050;DHT22;9657;45.940;12.840;2022-07-21T03:05:39;32.70;39.70
19050;DHT22;9657;45.940;12.840;2022-07-21T03:08:07;32.80;39.70
19050;DHT22;9657;45.940;12.840;2022-07-21T03:10:35;32.70;39.70
19050;DHT22;9657;45.940;12.840;2022-07-21T03:13:03;32.70;39.70
19050;DHT22;9657;45.940;12.840;2022-07-21T03:15:31;32.70;39.70
19050;DHT22;9657;45.940;12.840;2022-07-21T03:17:58;32.70;39.70
19050;DHT22;9657;45.940;12.840;2022-07-21T03:20:29;32.70;39.70
19050;DHT22;9657;45.940;12.840;2022-07-21T03:22:57;32.70;39.80
19050;DHT22;9657;45.940;12.840;2022-07-21T03:25:24;32.70;39.80
19050;DHT22;9657;45.940;12.840;2022-07-21T03:27:51;32.70;39.80
19050;DHT22;9657;45.940;12.840;2022-07-21T03:30:19;32.70;39.80
19050;DHT22;9657;45.940;12.840;2022-07-21T03:32:47;32.70;39.80
19050;DHT22;9657;45.940;12.840;2022-07-21T03:35:14;32.70;39.80
19050;DHT22;9657;45.940;12.840;2022-07-21T03:37:44;32.70;39.80
19050;DHT22;9657;45.940;12.840;2022-07-21T03:40:13;32.70;39.80
19050;DHT22;9657;45.940;12.840;2022-07-21T03:42:41;32.70;39.90
19050;DHT22;9657;45.940;12.840;2022-07-21T03:45:09;32.70;39.80
19050;DHT22;9657;45.940;12.840;2022-07-21T03:47:37;32.70;39.90
19050;DHT22;9657;45.940;12.840;2022-07-21T03:50:06;32.70;39.90
19050;DHT22;9657;45.940;12.840;2022-07-21T03:52:33;32.70;39.90
19050;DHT22;9657;45.940;12.840;2022-07-21T03:55:02;32.70;39.90
19050;DHT22;9657;45.940;12.840;2022-07-21T03:57:36;32.70;39.90
19050;DHT22;9657;45.940;12.840;2022-07-21T04:00:06;32.70;39.90
19050;DHT22;9657;45.940;12.840;2022-07-21T04:02:34;32.70;39.90
19050;DHT22;9657;45.940;12.840;2022-07-21T04:05:01;32.70;39.90
19050;DHT22;9657;45.940;12.840;2022-07-21T04:07:29;32.70;39.90
19050;DHT22;9657;45.940;12.840;2022-07-21T04:09:56;32.60;40.50
19050;DHT22;9657;45.940;12.840;2022-07-21T04:12:26;32.70;39.90
19050;DHT22;9657;45.940;12.840;2022-07-21T04:14:53;32.60;39.80
19050;DHT22;9657;45.940;12.840;2022-07-21T04:17:21;32.60;39.80
19050;DHT22;9657;45.940;12.840;2022-07-21T04:19:48;32.60;39.80
19050;DHT22;9657;45.940;12.840;2022-07-21T04:22:15;32.70;39.90
19050;DHT22;9657;45.940;12.840;2022-07-21T04:24:43;32.60;39.80
19050;DHT22;9657;45.940;12.840;2022-07-21T04:27:10;32.60;39.80
19050;DHT22;9657;45.940;12.840;2022-07-21T04:29:38;32.60;39.90
19050;DHT22;9657;45.940;12.840;2022-07-21T04:32:05;32.60;39.90
19050;DHT22;9657;45.940;12.840;2022-07-21T04:34:32;32.60;39.90
19050;DHT22;9657;45.940;12.840;2022-07-21T04:36:59;32.60;39.90
19050;DHT22;9657;45.940;12.840;2022-07-21T04:39:27;32.60;39.90
19050;DHT22;9657;45.940;12.840;2022-07-21T04:41:54;32.60;39.90
19050;DHT22;9657;45.940;12.840;2022-07-21T04:44:21;32.60;39.90
19050;DHT22;9657;45.940;12.840;2022-07-21T04:46:50;32.60;40.00
19050;DHT22;9657;45.940;12.840;2022-07-21T04:49:17;32.60;39.90
19050;DHT22;9657;45.940;12.840;2022-07-21T04:51:44;32.60;40.00
19050;DHT22;9657;45.940;12.840;2022-07-21T04:54:11;32.60;40.00
19050;DHT22;9657;45.940;12.840;2022-07-21T04:56:40;32.60;40.00
19050;DHT22;9657;45.940;12.840;2022-07-21T04:59:07;32.50;39.90
19050;DHT22;9657;45.940;12.840;2022-07-21T05:01:34;32.60;40.00
19050;DHT22;9657;45.940;12.840;2022-07-21T05:04:03;32.60;40.00
19050;DHT22;9657;45.940;12.840;2022-07-21T05:06:30;32.50;39.90
19050;DHT22;9657;45.940;12.840;2022-07-21T05:08:57;32.60;40.00
19050;DHT22;9657;45.940;12.840;2022-07-21T05:11:24;32.50;39.90
19050;DHT22;9657;45.940;12.840;2022-07-21T05:13:52;32.50;39.90
19050;DHT22;9657;45.940;12.840;2022-07-21T05:16:19;32.50;39.90
19050;DHT22;9657;45.940;12.840;2022-07-21T05:18:46;32.50;39.90
19050;DHT22;9657;45.940;12.840;2022-07-21T05:21:15;32.50;39.90
19050;DHT22;9657;45.940;12.840;2022-07-21T05:23:42;32.50;39.90
19050;DHT22;9657;45.940;12.840;2022-07-21T05:26:11;32.60;40.00
19050;DHT22;9657;45.940;12.840;2022-07-21T05:28:39;32.50;40.00
19050;DHT22;9657;45.940;12.840;2022-07-21T05:31:06;32.50;40.00
19050;DHT22;9657;45.940;12.840;2022-07-21T05:33:34;32.60;40.00
19050;DHT22;9657;45.940;12.840;2022-07-21T05:36:02;32.50;40.00
19050;DHT22;9657;45.940;12.840;2022-07-21T05:38:30;32.50;40.00
19050;DHT22;9657;45.940;12.840;2022-07-21T05:40:57;32.50;40.00
19050;DHT22;9657;45.940;12.840;2022-07-21T05:43:28;32.50;40.00
19050;DHT22;9657;45.940;12.840;2022-07-21T05:45:56;32.50;40.10
19050;DHT22;9657;45.940;12.840;2022-07-21T05:48:24;32.50;40.10
19050;DHT22;9657;45.940;12.840;2022-07-21T05:50:51;32.50;40.20
19050;DHT22;9657;45.940;12.840;2022-07-21T05:53:18;32.50;40.20
19050;DHT22;9657;45.940;12.840;2022-07-21T05:55:46;32.50;40.20
19050;DHT22;9657;45.940;12.840;2022-07-21T05:58:13;32.50;40.20
19050;DHT22;9657;45.940;12.840;2022-07-21T06:00:41;32.50;40.20
19050;DHT22;9657;45.940;12.840;2022-07-21T06:03:08;32.50;40.40
19050;DHT22;9657;45.940;12.840;2022-07-21T06:05:36;32.50;40.30
19050;DHT22;9657;45.940;12.840;2022-07-21T06:08:03;32.50;40.40
19050;DHT22;9657;45.940;12.840;2022-07-21T06:10:30;32.50;40.40
19050;DHT22;9657;45.940;12.840;2022-07-21T06:12:59;32.50;40.40
19050;DHT22;9657;45.940;12.840;2022-07-21T06:15:27;32.50;40.40
19050;DHT22;9657;45.940;12.840;2022-07-21T06:17:54;32.50;40.40
19050;DHT22;9657;45.940;12.840;2022-07-21T06:20:21;32.50;40.40
19050;DHT22;9657;45.940;12.840;2022-07-21T06:22:48;32.50;40.40
19050;DHT22;9657;45.940;12.840;2022-07-21T06:25:16;32.50;40.50
19050;DHT22;9657;45.940;12.840;2022-07-21T06:27:43;32.50;40.50
19050;DHT22;9657;45.940;12.840;2022-07-21T06:30:12;32.50;40.50
19050;DHT22;9657;45.940;12.840;2022-07-21T06:32:39;32.50;40.50
19050;DHT22;9657;45.940;12.840;2022-07-21T06:35:07;32.50;40.50
19050;DHT22;9657;45.940;12.840;2022-07-21T06:37:35;32.50;40.50
19050;DHT22;9657;45.940;12.840;2022-07-21T06:40:02;32.50;40.50
19050;DHT22;9657;45.940;12.840;2022-07-21T06:42:29;32.50;40.50
19050;DHT22;9657;45.940;12.840;2022-07-21T06:44:57;32.50;40.50
19050;DHT22;9657;45.940;12.840;2022-07-21T06:47:25;32.50;40.50
19050;DHT22;9657;45.940;12.840;2022-07-21T06:49:52;32.50;40.50
19050;DHT22;9657;45.940;12.840;2022-07-21T06:52:19;32.50;40.50
19050;DHT22;9657;45.940;12.840;2022-07-21T06:54:46;32.50;40.50
19050;DHT22;9657;45.940;12.840;2022-07-21T06:57:13;32.50;40.50
19050;DHT22;9657;45.940;12.840;2022-07-21T06:59:40;32.50;40.50
19050;DHT22;9657;45.940;12.840;2022-07-21T07:02:07;32.50;40.50
19050;DHT22;9657;45.940;12.840;2022-07-21T07:04:36;32.50;40.60
19050;DHT22;9657;45.940;12.840;2022-07-21T07:07:03;32.50;40.60
19050;DHT22;9657;45.940;12.840;2022-07-21T07:09:30;32.50;40.60
19050;DHT22;9657;45.940;12.840;2022-07-21T07:11:57;32.50;40.70
19050;DHT22;9657;45.940;12.840;2022-07-21T07:14:29;32.50;40.70
19050;DHT22;9657;45.940;12.840;2022-07-21T07:16:56;32.50;40.70
19050;DHT22;9657;45.940;12.840;2022-07-21T07:19:23;32.50;40.70
19050;DHT22;9657;45.940;12.840;2022-07-21T07:21:52;32.50;40.70
19050;DHT22;9657;45.940;12.840;2022-07-21T07:24:19;32.50;40.70
19050;DHT22;9657;45.940;12.840;2022-07-21T07:26:46;32.50;40.70
19050;DHT22;9657;45.940;12.840;2022-07-21T07:29:13;32.50;40.60
19050;DHT22;9657;45.940;12.840;2022-07-21T07:31:41;32.50;40.60
19050;DHT22;9657;45.940;12.840;2022-07-21T07:34:08;32.50;40.60
19050;DHT22;9657;45.940;12.840;2022-07-21T07:36:36;32.50;40.50
19050;DHT22;9657;45.940;12.840;2022-07-21T07:39:04;32.50;40.50
19050;DHT22;9657;45.940;12.840;2022-07-21T07:41:31;32.50;40.50
19050;DHT22;9657;45.940;12.840;2022-07-21T07:43:59;32.50;40.40
19050;DHT22;9657;45.940;12.840;2022-07-21T07:46:26;32.50;40.40
19050;DHT22;9657;45.940;12.840;2022-07-21T07:48:54;32.50;40.40
19050;DHT22;9657;45.940;12.840;2022-07-21T07:51:21;32.50;40.40
19050;DHT22;9657;45.940;12.840;2022-07-21T07:53:48;32.50;40.30
19050;DHT22;9657;45.940;12.840;2022-07-21T07:56:16;32.50;40.30
19050;DHT22;9657;45.940;12.840;2022-07-21T07:58:43;32.50;40.20
19050;DHT22;9657;45.940;12.840;2022-07-21T08:01:10;32.50;40.30
19050;DHT22;9657;45.940;12.840;2022-07-21T08:03:37;32.50;40.30
19050;DHT22;9657;45.940;12.840;2022-07-21T08:06:05;32.50;40.40
19050;DHT22;9657;45.940;12.840;2022-07-21T08:08:33;32.50;40.40
19050;DHT22;9657;45.940;12.840;2022-07-21T08:11:00;32.50;40.40
19050;DHT22;9657;45.940;12.840;2022-07-21T08:13:28;32.50;40.40
19050;DHT22;9657;45.940;12.840;2022-07-21T08:15:56;32.50;40.30
19050;DHT22;9657;45.940;12.840;2022-07-21T08:18:23;32.50;40.30
19050;DHT22;9657;45.940;12.840;2022-07-21T08:20:50;32.50;40.30
19050;DHT22;9657;45.940;12.840;2022-07-21T08:23:17;32.50;40.30
19050;DHT22;9657;45.940;12.840;2022-07-21T08:25:44;32.50;40.30
19050;DHT22;9657;45.940;12.840;2022-07-21T08:28:11;32.50;40.20
19050;DHT22;9657;45.940;12.840;2022-07-21T08:30:40;32.50;40.20
19050;DHT22;9657;45.940;12.840;2022-07-21T08:33:07;32.50;40.20
19050;DHT22;9657;45.940;12.840;2022-07-21T08:35:34;32.50;40.20
19050;DHT22;9657;45.940;12.840;2022-07-21T08:38:03;32.50;40.30
19050;DHT22;9657;45.940;12.840;2022-07-21T08:40:33;32.50;40.30
19050;DHT22;9657;45.940;12.840;2022-07-21T08:43:00;32.50;40.30
19050;DHT22;9657;45.940;12.840;2022-07-21T08:45:28;32.50;40.70
19050;DHT22;9657;45.940;12.840;2022-07-21T08:47:59;32.50;40.30
19050;DHT22;9657;45.940;12.840;2022-07-21T08:50:27;32.50;40.20
19050;DHT22;9657;45.940;12.840;2022-07-21T08:52:55;32.50;40.20
19050;DHT22;9657;45.940;12.840;2022-07-21T08:55:22;32.50;40.20
19050;DHT22;9657;45.940;12.840;2022-07-21T08:57:50;32.50;40.20
19050;DHT22;9657;45.940;12.840;2022-07-21T09:00:17;32.50;40.20
19050;DHT22;9657;45.940;12.840;2022-07-21T09:02:44;32.50;40.20
19050;DHT22;9657;45.940;12.840;2022-07-21T09:05:12;32.50;40.10
19050;DHT22;9657;45.940;12.840;2022-07-21T09:07:50;32.60;40.20
19050;DHT22;9657;45.940;12.840;2022-07-21T09:10:22;32.60;40.10
19050;DHT22;9657;45.940;12.840;2022-07-21T09:12:52;32.50;40.10
19050;DHT22;9657;45.940;12.840;2022-07-21T09:15:21;32.60;40.20
19050;DHT22;9657;45.940;12.840;2022-07-21T09:18:07;32.60;40.10
19050;DHT22;9657;45.940;12.840;2022-07-21T09:20:36;32.60;40.10
19050;DHT22;9657;45.940;12.840;2022-07-21T09:23:05;32.60;40.00
19050;DHT22;9657;45.940;12.840;2022-07-21T09:25:35;32.60;40.00
19050;DHT22;9657;45.940;12.840;2022-07-21T09:28:10;32.70;40.10
19050;DHT22;9657;45.940;12.840;2022-07-21T09:30:56;32.70;40.10
19050;DHT22;9657;45.940;12.840;2022-07-21T09:33:27;32.60;40.00
19050;DHT22;9657;45.940;12.840;2022-07-21T09:36:04;32.70;39.90
19050;DHT22;9657;45.940;12.840;2022-07-21T09:38:35;32.70;39.80
19050;DHT22;9657;45.940;12.840;2022-07-21T09:41:11;32.70;39.80
19050;DHT22;9657;45.940;12.840;2022-07-21T09:43:41;32.70;39.70
19050;DHT22;9657;45.940;12.840;2022-07-21T09:46:11;32.70;39.70
19050;DHT22;9657;45.940;12.840;2022-07-21T09:48:40;32.70;39.70
19050;DHT22;9657;45.940;12.840;2022-07-21T09:51:29;32.70;39.70
19050;DHT22;9657;45.940;12.840;2022-07-21T09:53:58;32.70;39.70
19050;DHT22;9657;45.940;12.840;2022-07-21T09:56:28;32.70;39.70
19050;DHT22;9657;45.940;12.840;2022-07-21T09:58:56;32.70;39.70
19050;DHT22;9657;45.940;12.840;2022-07-21T10:01:25;32.70;39.70
19050;DHT22;9657;45.940;12.840;2022-07-21T10:03:54;32.70;39.70
19050;DHT22;9657;45.940;12.840;2022-07-21T10:06:23;32.70;39.70
19050;DHT22;9657;45.940;12.840;2022-07-21T10:08:53;32.70;39.70
19050;DHT22;9657;45.940;12.840;2022-07-21T10:11:20;32.80;39.70
19050;DHT22;9657;45.940;12.840;2022-07-21T10:13:48;32.70;39.60
19050;DHT22;9657;45.940;12.840;2022-07-21T10:16:16;32.70;39.60
19050;DHT22;9657;45.940;12.840;2022-07-21T10:18:52;32.80;39.60
19050;DHT22;9657;45.940;12.840;2022-07-21T10:21:36;32.80;39.50
19050;DHT22;9657;45.940;12.840;2022-07-21T10:24:10;32.70;39.40
19050;DHT22;9657;45.940;12.840;2022-07-21T10:26:37;32.80;39.30
19050;DHT22;9657;45.940;12.840;2022-07-21T10:29:04;32.80;39.30
19050;DHT22;9657;45.940;12.840;2022-07-21T10:31:41;32.80;39.20
19050;DHT22;9657;45.940;12.840;2022-07-21T10:34:09;32.80;39.20
19050;DHT22;9657;45.940;12.840;2022-07-21T10:36:46;32.80;39.20
19050;DHT22;9657;45.940;12.840;2022-07-21T10:39:24;32.80;39.20
19050;DHT22;9657;45.940;12.840;2022-07-21T10:41:53;32.80;39.20
19050;DHT22;9657;45.940;12.840;2022-07-21T10:44:41;32.80;39.20
19050;DHT22;9657;45.940;12.840;2022-07-21T10:47:10;32.80;39.20
19050;DHT22;9657;45.940;12.840;2022-07-21T10:49:53;32.80;39.20
19050;DHT22;9657;45.940;12.840;2022-07-21T10:52:55;32.90;39.30
19050;DHT22;9657;45.940;12.840;2022-07-21T10:55:25;32.90;39.30
19050;DHT22;9657;45.940;12.840;2022-07-21T10:58:15;32.90;39.30
19050;DHT22;9657;45.940;12.840;2022-07-21T11:00:50;32.90;39.30
19050;DHT22;9657;45.940;12.840;2022-07-21T11:03:23;32.90;39.20
19050;DHT22;9657;45.940;12.840;2022-07-21T11:06:12;32.90;39.20
19050;DHT22;9657;45.940;12.840;2022-07-21T11:08:41;32.90;39.10
19050;DHT22;9657;45.940;12.840;2022-07-21T11:11:11;32.90;39.10
19050;DHT22;9657;45.940;12.840;2022-07-21T11:13:57;32.90;39.10
19050;DHT22;9657;45.940;12.840;2022-07-21T11:19:32;32.90;39.10
19050;DHT22;9657;45.940;12.840;2022-07-21T11:22:02;33.00;39.10
19050;DHT22;9657;45.940;12.840;2022-07-21T11:24:29;33.00;39.70
19050;DHT22;9657;45.940;12.840;2022-07-21T11:27:00;33.00;39.10
19050;DHT22;9657;45.940;12.840;2022-07-21T11:29:27;33.00;39.10
19050;DHT22;9657;45.940;12.840;2022-07-21T11:31:55;33.00;39.00
19050;DHT22;9657;45.940;12.840;2022-07-21T11:34:23;33.00;39.00
19050;DHT22;9657;45.940;12.840;2022-07-21T11:36:59;33.00;38.90
19050;DHT22;9657;45.940;12.840;2022-07-21T11:39:26;33.00;38.90
19050;DHT22;9657;45.940;12.840;2022-07-21T11:41:53;33.00;38.90
19050;DHT22;9657;45.940;12.840;2022-07-21T11:44:26;33.00;39.00
19050;DHT22;9657;45.940;12.840;2022-07-21T11:46:54;33.00;38.90
19050;DHT22;9657;45.940;12.840;2022-07-21T11:49:21;33.00;38.90
19050;DHT22;9657;45.940;12.840;2022-07-21T11:51:50;33.00;38.90
19050;DHT22;9657;45.940;12.840;2022-07-21T11:54:25;33.00;39.00
19050;DHT22;9657;45.940;12.840;2022-07-21T11:56:53;33.00;38.90
19050;DHT22;9657;45.940;12.840;2022-07-21T11:59:21;33.00;38.80
19050;DHT22;9657;45.940;12.840;2022-07-21T12:01:53;33.00;38.70
19050;DHT22;9657;45.940;12.840;2022-07-21T12:04:31;33.10;38.80
19050;DHT22;9657;45.940;12.840;2022-07-21T12:06:58;33.10;38.80
19050;DHT22;9657;45.940;12.840;2022-07-21T12:09:26;33.10;38.80
19050;DHT22;9657;45.940;12.840;2022-07-21T12:11:53;33.10;38.80
19050;DHT22;9657;45.940;12.840;2022-07-21T12:14:31;33.10;38.80
19050;DHT22;9657;45.940;12.840;2022-07-21T12:17:06;33.10;38.80
19050;DHT22;9657;45.940;12.840;2022-07-21T12:19:33;33.10;38.80
19050;DHT22;9657;45.940;12.840;2022-07-21T12:22:00;33.10;38.70
19050;DHT22;9657;45.940;12.840;2022-07-21T12:24:54;33.10;38.70
19050;DHT22;9657;45.940;12.840;2022-07-21T12:27:23;33.10;38.80
19050;DHT22;9657;45.940;12.840;2022-07-21T12:29:50;33.10;38.80
19050;DHT22;9657;45.940;12.840;2022-07-21T12:32:41;33.10;38.70
19050;DHT22;9657;45.940;12.840;2022-07-21T12:35:17;33.20;38.80
19050;DHT22;9657;45.940;12.840;2022-07-21T12:37:56;33.20;38.70
19050;DHT22;9657;45.940;12.840;2022-07-21T12:40:23;33.20;38.60
19050;DHT22;9657;45.940;12.840;2022-07-21T12:43:06;33.20;38.70
19050;DHT22;9657;45.940;12.840;2022-07-21T12:45:48;33.20;38.70
19050;DHT22;9657;45.940;12.840;2022-07-21T12:48:18;33.20;38.60
19050;DHT22;9657;45.940;12.840;2022-07-21T12:51:13;33.20;38.60
19050;DHT22;9657;45.940;12.840;2022-07-21T12:53:45;33.20;38.60
19050;DHT22;9657;45.940;12.840;2022-07-21T12:56:16;33.20;38.60
19050;DHT22;9657;45.940;12.840;2022-07-21T12:58:44;33.20;38.60
19050;DHT22;9657;45.940;12.840;2022-07-21T13:01:12;33.20;38.50
19050;DHT22;9657;45.940;12.840;2022-07-21T13:03:41;33.30;38.50
19050;DHT22;9657;45.940;12.840;2022-07-21T13:06:09;33.30;38.50
19050;DHT22;9657;45.940;12.840;2022-07-21T13:08:37;33.30;38.50
19050;DHT22;9657;45.940;12.840;2022-07-21T13:11:05;33.30;38.60
19050;DHT22;9657;45.940;12.840;2022-07-21T13:13:32;33.30;38.60
19050;DHT22;9657;45.940;12.840;2022-07-21T13:15:59;33.30;38.50
19050;DHT22;9657;45.940;12.840;2022-07-21T13:18:26;33.30;38.50
19050;DHT22;9657;45.940;12.840;2022-07-21T13:20:55;33.30;38.40
19050;DHT22;9657;45.940;12.840;2022-07-21T13:23:22;33.30;38.40
19050;DHT22;9657;45.940;12.840;2022-07-21T13:25:50;33.30;38.30
19050;DHT22;9657;45.940;12.840;2022-07-21T13:28:17;33.30;38.20
19050;DHT22;9657;45.940;12.840;2022-07-21T13:30:45;33.30;38.20
19050;DHT22;9657;45.940;12.840;2022-07-21T13:33:13;33.30;38.20
19050;DHT22;9657;45.940;12.840;2022-07-21T13:35:40;33.30;38.10
19050;DHT22;9657;45.940;12.840;2022-07-21T13:38:09;33.30;38.20
19050;DHT22;9657;45.940;12.840;2022-07-21T13:40:36;33.30;38.10
19050;DHT22;9657;45.940;12.840;2022-07-21T13:43:04;33.30;38.80
19050;DHT22;9657;45.940;12.840;2022-07-21T13:45:31;33.30;38.10
19050;DHT22;9657;45.940;12.840;2022-07-21T13:47:58;33.30;38.10
19050;DHT22;9657;45.940;12.840;2022-07-21T13:50:25;33.30;38.90
19050;DHT22;9657;45.940;12.840;2022-07-21T13:52:52;33.30;38.10
19050;DHT22;9657;45.940;12.840;2022-07-21T13:55:21;33.30;38.20
19050;DHT22;9657;45.940;12.840;2022-07-21T13:57:48;33.30;38.20
19050;DHT22;9657;45.940;12.840;2022-07-21T14:00:17;33.40;38.20
19050;DHT22;9657;45.940;12.840;2022-07-21T14:02:44;33.40;38.30
19050;DHT22;9657;45.940;12.840;2022-07-21T14:05:11;33.40;38.30
19050;DHT22;9657;45.940;12.840;2022-07-21T14:07:38;33.40;38.30
19050;DHT22;9657;45.940;12.840;2022-07-21T14:10:06;33.40;38.30
19050;DHT22;9657;45.940;12.840;2022-07-21T14:12:35;33.40;38.30
19050;DHT22;9657;45.940;12.840;2022-07-21T14:15:02;33.40;38.30
19050;DHT22;9657;45.940;12.840;2022-07-21T14:17:29;33.40;38.50
19050;DHT22;9657;45.940;12.840;2022-07-21T14:19:56;33.40;38.50
19050;DHT22;9657;45.940;12.840;2022-07-21T14:22:24;33.40;38.50
19050;DHT22;9657;45.940;12.840;2022-07-21T14:24:51;33.40;38.40
19050;DHT22;9657;45.940;12.840;2022-07-21T14:27:37;33.40;38.30
19050;DHT22;9657;45.940;12.840;2022-07-21T14:30:04;33.50;38.40
19050;DHT22;9657;45.940;12.840;2022-07-21T14:32:32;33.40;38.40
19050;DHT22;9657;45.940;12.840;2022-07-21T14:34:59;33.50;38.40
19050;DHT22;9657;45.940;12.840;2022-07-21T14:37:26;33.40;38.30
19050;DHT22;9657;45.940;12.840;2022-07-21T14:39:53;33.40;38.30
19050;DHT22;9657;45.940;12.840;2022-07-21T14:42:20;33.40;38.30
19050;DHT22;9657;45.940;12.840;2022-07-21T14:44:50;33.40;38.30
19050;DHT22;9657;45.940;12.840;2022-07-21T14:47:17;33.50;38.40
19050;DHT22;9657;45.940;12.840;2022-07-21T14:49:44;33.50;38.40
19050;DHT22;9657;45.940;12.840;2022-07-21T14:52:12;33.50;38.40
19050;DHT22;9657;45.940;12.840;2022-07-21T14:54:39;33.50;38.40
19050;DHT22;9657;45.940;12.840;2022-07-21T14:57:06;33.50;38.40
19050;DHT22;9657;45.940;12.840;2022-07-21T14:59:33;33.50;38.30
19050;DHT22;9657;45.940;12.840;2022-07-21T15:02:02;33.50;38.30
19050;DHT22;9657;45.940;12.840;2022-07-21T15:04:29;33.50;38.20
19050;DHT22;9657;45.940;12.840;2022-07-21T15:06:56;33.50;38.10
19050;DHT22;9657;45.940;12.840;2022-07-21T15:09:23;33.50;38.10
19050;DHT22;9657;45.940;12.840;2022-07-21T15:11:50;33.50;38.00
19050;DHT22;9657;45.940;12.840;2022-07-21T15:14:17;33.50;38.10
19050;DHT22;9657;45.940;12.840;2022-07-21T15:16:44;33.50;38.10
19050;DHT22;9657;45.940;12.840;2022-07-21T15:19:13;33.50;38.00
19050;DHT22;9657;45.940;12.840;2022-07-21T15:21:40;33.50;38.00
19050;DHT22;9657;45.940;12.840;2022-07-21T15:24:08;33.50;37.90
19050;DHT22;9657;45.940;12.840;2022-07-21T15:26:35;33.50;37.80
19050;DHT22;9657;45.940;12.840;2022-07-21T15:29:02;33.50;37.70
19050;DHT22;9657;45.940;12.840;2022-07-21T15:31:30;33.50;37.70
19050;DHT22;9657;45.940;12.840;2022-07-21T15:33:57;33.50;37.60
19050;DHT22;9657;45.940;12.840;2022-07-21T15:36:26;33.50;37.50
19050;DHT22;9657;45.940;12.840;2022-07-21T15:38:53;33.50;37.50
19050;DHT22;9657;45.940;12.840;2022-07-21T15:41:20;33.50;37.40
19050;DHT22;9657;45.940;12.840;2022-07-21T15:43:47;33.50;37.40
19050;DHT22;9657;45.940;12.840;2022-07-21T15:46:14;33.50;37.30